Time;durP1;ratioP1;P1;durP2;ratioP2;P2;SDS_P1;SDS_P2;PMS_P1;PMS_P2;Temp;Humidity;BMP_temperature;BMP_pressure;BME280_temperature;BME280_humidity;BME280_pressure;Samples;Min_cycle;Max_cycle;Signal;HPM_P1;HPM_P2
2023/04/13 05:27:46;;;;;;;14.88;1.75;;;12.50;63.50;;;;;;5311691;23;20101;-75
2023/04/13 05:30:12;;;;;;;8.65;1.83;;;12.50;64.60;;;;;;4957894;29;20047;-74
2023/04/13 05:32:38;;;;;;;11.52;1.70;;;12.70;64.40;;;;;;4951249;29;20412;-77
2023/04/13 05:35:04;;;;;;;13.48;1.92;;;12.90;64.80;;;;;;4958792;29;20122;-75
2023/04/13 05:37:30;;;;;;;12.25;1.92;;;13.00;64.70;;;;;;4942082;29;20039;-78
2023/04/13 05:39:57;;;;;;;18.15;1.95;;;13.20;65.00;;;;;;4958894;29;20054;-78
2023/04/13 05:42:23;;;;;;;19.50;2.72;;;13.50;65.80;;;;;;4958936;29;20099;-74
2023/04/13 05:44:49;;;;;;;19.02;2.28;;;13.60;65.30;;;;;;4935578;29;20067;-77
2023/04/13 05:47:17;;;;;;;26.83;3.05;;;13.70;65.30;;;;;;4947637;29;20131;-77
2023/04/13 05:49:42;;;;;;;16.02;2.10;;;13.90;65.40;;;;;;4936355;29;20039;-77
2023/04/13 05:52:09;;;;;;;19.38;2.65;;;14.00;65.70;;;;;;4925155;29;20047;-78
2023/04/13 05:54:35;;;;;;;18.13;3.00;;;13.90;64.00;;;;;;4957447;28;20050;-76
2023/04/13 05:57:01;;;;;;;25.00;3.15;;;14.10;66.10;;;;;;4953811;29;20070;-73
2023/04/13 05:59:27;;;;;;;25.05;3.28;;;14.10;66.30;;;;;;4952740;28;20031;-76
2023/04/13 06:01:52;;;;;;;24.17;3.03;;;14.20;66.40;;;;;;4953445;28;20445;-74
2023/04/13 06:04:19;;;;;;;16.80;3.40;;;14.30;66.60;;;;;;4953970;28;20469;-76
2023/04/13 06:06:46;;;;;;;23.50;3.17;;;14.40;66.60;;;;;;4952048;29;20047;-76
2023/04/13 06:09:12;;;;;;;22.67;3.28;;;14.50;66.60;;;;;;4952703;28;20109;-75
2023/04/13 06:11:37;;;;;;;23.02;2.92;;;14.50;66.70;;;;;;4951992;29;20038;-77
2023/04/13 06:14:03;;;;;;;20.75;2.85;;;14.70;66.70;;;;;;4952530;29;20061;-75
2023/04/13 06:16:29;;;;;;;27.83;3.85;;;14.70;66.20;;;;;;4953647;29;20050;-74
2023/04/13 06:18:55;;;;;;;34.42;4.22;;;14.80;66.40;;;;;;4936094;29;21380;-80
2023/04/13 06:21:20;;;;;;;31.70;3.78;;;14.90;66.50;;;;;;4935430;29;20039;-78
2023/04/13 06:23:46;;;;;;;29.58;3.30;;;14.90;66.20;;;;;;4953861;28;20047;-73
2023/04/13 06:26:12;;;;;;;29.08;3.72;;;15.00;65.60;;;;;;4952554;28;20055;-76
2023/04/13 06:28:38;;;;;;;24.17;3.22;;;15.00;65.00;;;;;;4952625;29;20059;-73
2023/04/13 06:31:04;;;;;;;24.23;2.42;;;15.10;64.70;;;;;;4967632;28;20171;-75
2023/04/13 06:33:30;;;;;;;14.85;2.30;;;15.20;64.40;;;;;;4935001;29;20473;-75
2023/04/13 06:35:56;;;;;;;17.15;3.05;;;15.20;64.20;;;;;;4952174;29;20054;-75
2023/04/13 06:38:22;;;;;;;17.00;1.80;;;15.20;63.90;;;;;;4951998;29;20046;-80
2023/04/13 06:40:47;;;;;;;10.63;1.90;;;15.30;63.70;;;;;;4952164;29;20046;-74
2023/04/13 06:43:16;;;;;;;10.30;1.77;;;15.30;63.60;;;;;;4952723;29;20043;-79
2023/04/13 06:45:42;;;;;;;14.30;2.40;;;15.30;63.50;;;;;;4935216;29;20063;-79
2023/04/13 06:48:07;;;;;;;13.02;2.15;;;15.40;63.50;;;;;;4952016;29;20386;-77
2023/04/13 06:50:33;;;;;;;20.33;2.63;;;15.40;63.50;;;;;;4950329;29;20069;-75
2023/04/13 06:52:59;;;;;;;8.10;1.38;;;15.50;63.30;;;;;;4952599;29;20369;-76
2023/04/13 06:55:24;;;;;;;10.48;2.05;;;15.50;63.10;;;;;;4944314;29;20058;-76
2023/04/13 06:57:50;;;;;;;11.73;1.73;;;15.60;63.10;;;;;;4957624;29;20489;-75
2023/04/13 07:00:16;;;;;;;10.23;1.73;;;15.60;63.00;;;;;;4957031;29;20054;-75
2023/04/13 07:02:42;;;;;;;9.70;1.60;;;15.60;62.90;;;;;;4957750;29;20051;-76
2023/04/13 07:05:10;;;;;;;10.13;1.60;;;15.70;63.00;;;;;;4957450;28;20079;-75
2023/04/13 07:07:36;;;;;;;9.43;1.42;;;15.60;62.90;;;;;;4957712;29;20343;-75
2023/04/13 07:10:02;;;;;;;7.03;1.48;;;15.60;62.90;;;;;;4957211;29;20043;-75
2023/04/13 07:12:27;;;;;;;17.08;1.55;;;15.70;62.80;;;;;;4956651;28;20043;-77
2023/04/13 07:14:53;;;;;;;13.52;2.25;;;15.70;62.80;;;;;;4939774;29;20070;-76
2023/04/13 07:17:19;;;;;;;11.90;2.10;;;15.70;62.70;;;;;;4937729;29;20048;-75
2023/04/13 07:19:46;;;;;;;10.60;1.75;;;15.70;62.80;;;;;;4952850;29;20121;-76
2023/04/13 07:22:12;;;;;;;5.82;1.35;;;15.70;62.80;;;;;;4924610;29;20055;-75
2023/04/13 07:24:38;;;;;;;6.40;1.52;;;15.70;62.80;;;;;;4956498;29;20051;-75
2023/04/13 07:27:04;;;;;;;8.85;2.05;;;15.70;62.80;;;;;;4955875;29;20051;-75
2023/04/13 07:29:30;;;;;;;15.07;1.80;;;15.70;62.70;;;;;;4950074;28;20060;-75
2023/04/13 07:32:01;;;;;;;14.35;1.60;;;15.80;62.80;;;;;;4937881;29;20058;-77
2023/04/13 07:34:27;;;;;;;12.13;1.63;;;15.80;62.90;;;;;;4937573;29;20114;-72
2023/04/13 07:36:54;;;;;;;8.38;1.02;;;15.70;62.90;;;;;;4937817;29;20043;-73
2023/04/13 07:39:20;;;;;;;8.70;1.33;;;15.80;62.80;;;;;;4934852;29;20098;-77
2023/04/13 07:41:46;;;;;;;7.75;1.27;;;15.70;62.50;;;;;;4933760;29;20079;-78
2023/04/13 07:44:13;;;;;;;7.93;1.33;;;15.70;62.40;;;;;;4930407;29;20048;-75
2023/04/13 07:46:39;;;;;;;9.57;1.08;;;15.70;62.30;;;;;;4937215;29;20126;-75
2023/04/13 07:49:05;;;;;;;10.50;1.30;;;15.70;62.30;;;;;;4954851;29;20059;-76
2023/04/13 07:51:33;;;;;;;7.00;1.30;;;15.70;62.40;;;;;;4956632;28;20043;-77
2023/04/13 07:53:59;;;;;;;6.05;1.35;;;15.70;62.40;;;;;;4946219;28;20427;-76
2023/04/13 07:56:25;;;;;;;8.70;1.10;;;15.70;62.50;;;;;;4931286;29;20041;-78
2023/04/13 07:58:51;;;;;;;6.97;0.95;;;15.60;62.60;;;;;;4940446;29;20052;-79
2023/04/13 08:01:17;;;;;;;5.75;1.02;;;15.70;65.00;;;;;;4944096;29;20043;-79
2023/04/13 08:03:43;;;;;;;7.03;0.77;;;15.60;64.50;;;;;;4938769;29;20129;-79
2023/04/13 08:06:10;;;;;;;9.55;0.75;;;15.60;63.90;;;;;;4938177;29;20112;-79
2023/04/13 08:08:36;;;;;;;6.47;1.02;;;15.60;64.30;;;;;;4937183;29;20438;-82
2023/04/13 08:11:01;;;;;;;9.43;0.75;;;15.60;65.10;;;;;;4937485;29;20095;-79
2023/04/13 08:13:28;;;;;;;6.03;0.77;;;15.60;65.10;;;;;;4921541;29;20062;-79
2023/04/13 08:15:56;;;;;;;3.45;0.50;;;15.60;65.20;;;;;;4936835;29;20059;-77
2023/04/13 08:18:26;;;;;;;4.63;0.65;;;15.60;65.20;;;;;;4935710;29;20048;-79
2023/04/13 08:20:53;;;;;;;7.07;1.00;;;15.60;64.80;;;;;;4934938;29;20063;-82
2023/04/13 08:23:20;;;;;;;7.20;0.65;;;15.60;65.00;;;;;;4936159;29;20478;-77
2023/04/13 08:25:46;;;;;;;5.60;0.57;;;15.70;65.20;;;;;;4937162;29;20043;-77
2023/04/13 08:28:12;;;;;;;3.67;0.60;;;15.70;64.20;;;;;;4940897;29;20069;-79
2023/04/13 08:30:38;;;;;;;3.72;0.57;;;15.70;63.80;;;;;;4939612;29;20039;-80
2023/04/13 08:33:04;;;;;;;3.97;0.80;;;15.70;63.50;;;;;;4940230;29;20054;-80
2023/04/13 08:35:38;;;;;;;2.22;0.47;;;15.70;63.20;;;;;;4951722;29;20039;-83
2023/04/13 08:38:04;;;;;;;;;;;15.70;63.00;;;;;;4940680;29;20075;-83
2023/04/13 08:40:38;;;;;;;4.13;0.20;;;15.70;63.20;;;;;;4939457;29;19919;-83
2023/04/13 08:43:24;;;;;;;3.45;0.52;;;15.80;63.40;;;;;;4908191;29;20043;-82
2023/04/13 08:46:00;;;;;;;4.72;0.50;;;15.80;62.90;;;;;;4924213;29;20057;-82
2023/04/13 08:48:26;;;;;;;6.05;0.40;;;15.80;62.80;;;;;;4924370;29;20058;-79
2023/04/13 08:50:58;;;;;;;4.10;0.60;;;15.80;62.80;;;;;;4943960;29;20048;-84
2023/04/13 08:53:24;;;;;;;3.83;0.50;;;15.80;62.40;;;;;;4959213;29;20039;-78
2023/04/13 08:55:54;;;;;;;2.95;0.85;;;15.80;62.20;;;;;;4959312;29;20531;-81
2023/04/13 08:58:23;;;;;;;1.85;0.20;;;15.80;62.00;;;;;;4924273;29;20058;-79
2023/04/13 09:00:49;;;;;;;1.95;0.43;;;15.90;62.10;;;;;;4958526;29;20054;-80
2023/04/13 09:04:06;;;;;;;2.20;0.40;;;15.90;62.10;;;;;;4950962;29;20098;-80
2023/04/13 09:06:36;;;;;;;1.52;0.40;;;15.90;61.90;;;;;;4916026;29;20383;-79
2023/04/13 09:09:09;;;;;;;2.95;0.32;;;15.90;62.10;;;;;;4915398;29;20063;-81
2023/04/13 09:11:36;;;;;;;1.33;0.30;;;15.90;62.30;;;;;;4951265;29;20114;-80
2023/04/13 09:14:02;;;;;;;2.15;0.43;;;15.90;61.90;;;;;;4946327;29;20039;-80
2023/04/13 09:16:28;;;;;;;1.40;0.30;;;15.80;61.60;;;;;;4940834;29;20473;-82
2023/04/13 09:18:56;;;;;;;3.70;0.43;;;15.80;61.70;;;;;;4926325;29;20051;-77
2023/04/13 09:21:34;;;;;;;5.13;0.95;;;15.80;60.70;;;;;;4958904;29;20102;-77
2023/04/13 09:24:00;;;;;;;4.35;0.90;;;15.70;59.50;;;;;;4944335;29;20058;-78
2023/04/13 09:26:26;;;;;;;8.27;0.68;;;15.60;59.10;;;;;;4958977;29;20035;-75
2023/04/13 09:29:04;;;;;;;8.32;1.00;;;15.50;58.90;;;;;;4958478;29;20059;-78
2023/04/13 09:31:33;;;;;;;9.52;1.20;;;15.40;59.20;;;;;;4946564;29;20039;-77
2023/04/13 09:33:59;;;;;;;11.02;1.67;;;15.40;59.70;;;;;;4958581;29;20046;-75
2023/04/13 09:36:27;;;;;;;15.25;1.92;;;15.40;60.40;;;;;;4950552;29;20457;-76
2023/04/13 09:38:56;;;;;;;8.55;0.98;;;15.40;60.50;;;;;;4958627;29;20039;-77
2023/04/13 09:41:32;;;;;;;12.68;1.75;;;15.30;60.50;;;;;;4958663;29;20039;-77
2023/04/13 09:44:13;;;;;;;15.80;2.15;;;15.40;60.10;;;;;;4957225;28;20462;-76
2023/04/13 09:46:39;;;;;;;19.73;1.88;;;15.30;59.90;;;;;;4957079;29;20055;-78
2023/04/13 09:49:05;;;;;;;12.82;1.88;;;15.20;60.00;;;;;;4957958;29;20059;-76
2023/04/13 09:51:36;;;;;;;18.88;1.98;;;15.20;60.20;;;;;;4957430;29;20047;-76
2023/04/13 09:54:04;;;;;;;14.68;2.33;;;15.20;60.30;;;;;;4946058;29;20126;-76
2023/04/13 09:56:45;;;;;;;15.48;2.03;;;15.20;60.50;;;;;;4958285;29;20087;-73
2023/04/13 09:59:12;;;;;;;12.77;1.50;;;15.20;60.80;;;;;;4965631;28;20409;-80
2023/04/13 10:01:42;;;;;;;16.88;2.50;;;15.20;60.80;;;;;;4954593;29;20122;-77
2023/04/13 10:04:08;;;;;;;13.10;1.65;;;15.20;60.80;;;;;;4958116;29;20373;-78
2023/04/13 10:06:39;;;;;;;10.25;1.55;;;15.20;60.80;;;;;;4958253;29;20055;-79
2023/04/13 10:09:05;;;;;;;8.43;1.65;;;15.20;60.90;;;;;;4955512;29;20390;-81
2023/04/13 10:11:44;;;;;;;14.35;1.90;;;15.20;61.00;;;;;;4957424;29;20054;-77
2023/04/13 10:14:18;;;;;;;16.45;2.05;;;15.20;61.50;;;;;;4941472;29;20402;-81
2023/04/13 10:17:04;;;;;;;;;;;15.20;62.10;;;;;;4958520;29;20039;-80
2023/04/13 10:19:39;;;;;;;12.93;1.88;;;15.20;62.20;;;;;;4947681;29;20365;-76
2023/04/13 10:22:06;;;;;;;6.82;1.30;;;15.20;61.90;;;;;;4958386;28;20044;-76
2023/04/13 10:24:32;;;;;;;10.85;1.25;;;15.20;62.30;;;;;;4944279;29;20174;-73
2023/04/13 10:27:00;;;;;;;8.23;1.58;;;15.20;62.60;;;;;;4925120;29;20047;-77
2023/04/13 10:29:31;;;;;;;14.52;2.25;;;15.20;62.40;;;;;;4937499;29;20059;-71
2023/04/13 10:32:04;;;;;;;7.72;2.00;;;15.20;62.50;;;;;;4938940;29;20054;-74
2023/04/13 10:34:33;;;;;;;8.07;2.80;;;15.20;62.40;;;;;;4938937;29;20154;-77
2023/04/13 10:37:02;;;;;;;14.60;6.00;;;15.20;62.60;;;;;;4947377;29;20116;-75
2023/04/13 10:39:31;;;;;;;14.93;6.10;;;15.20;63.60;;;;;;4938100;29;20071;-76
2023/04/13 10:42:00;;;;;;;13.43;5.97;;;15.20;63.80;;;;;;4938642;29;20047;-74
2023/04/13 10:44:26;;;;;;;13.68;6.38;;;15.20;63.40;;;;;;4938319;29;20051;-73
2023/04/13 10:46:52;;;;;;;14.77;6.40;;;15.20;63.30;;;;;;4938848;29;20090;-75
2023/04/13 10:49:29;;;;;;;18.73;7.13;;;15.20;63.90;;;;;;4938294;29;20077;-75
2023/04/13 10:51:55;;;;;;;20.00;6.57;;;15.20;64.30;;;;;;4937692;29;20378;-78
2023/04/13 10:54:21;;;;;;;20.65;6.57;;;15.20;64.70;;;;;;4931729;29;20037;-74
2023/04/13 10:57:03;;;;;;;13.10;5.88;;;15.20;64.60;;;;;;4937163;29;20415;-73
2023/04/13 10:59:51;;;;;;;16.45;4.97;;;15.20;66.50;;;;;;4936329;29;20039;-74
2023/04/13 11:02:17;;;;;;;22.35;4.70;;;15.20;67.20;;;;;;4937652;29;20146;-74
2023/04/13 11:04:46;;;;;;;18.75;5.30;;;15.20;67.20;;;;;;4938566;29;20091;-72
2023/04/13 11:07:17;;;;;;;14.98;4.25;;;15.20;67.30;;;;;;4929306;29;20123;-76
2023/04/13 11:09:44;;;;;;;15.50;3.45;;;15.20;67.70;;;;;;4938316;29;20040;-77
2023/04/13 11:12:13;;;;;;;11.93;3.40;;;15.20;66.80;;;;;;4938134;29;20103;-77
2023/04/13 11:14:43;;;;;;;7.40;2.70;;;15.30;66.90;;;;;;4938519;29;20054;-75
2023/04/13 11:17:13;;;;;;;13.77;3.03;;;15.30;66.70;;;;;;4938181;29;20142;-74
2023/04/13 11:19:49;;;;;;;13.35;2.60;;;15.30;66.10;;;;;;4937698;29;20051;-76
2023/04/13 11:22:17;;;;;;;10.60;2.60;;;15.30;65.80;;;;;;4921061;29;20123;-73
2023/04/13 11:24:43;;;;;;;16.92;2.67;;;15.40;65.80;;;;;;4937558;29;20063;-73
2023/04/13 11:27:22;;;;;;;13.57;2.75;;;15.40;65.90;;;;;;4938156;29;20126;-74
2023/04/13 11:30:05;;;;;;;15.27;2.90;;;15.40;65.90;;;;;;4937299;29;20059;-76
2023/04/13 11:32:35;;;;;;;14.60;2.92;;;15.50;65.70;;;;;;4937991;29;20056;-78
2023/04/13 11:35:06;;;;;;;14.52;2.58;;;15.50;65.40;;;;;;4938671;29;20086;-74
2023/04/13 11:37:41;;;;;;;11.75;2.55;;;15.50;65.10;;;;;;4937168;29;20044;-73
2023/04/13 11:40:20;;;;;;;15.35;2.38;;;15.60;64.80;;;;;;4937938;29;20131;-77
2023/04/13 11:42:54;;;;;;;16.33;3.63;;;15.60;64.60;;;;;;4937945;29;20047;-75
2023/04/13 11:45:26;;;;;;;14.55;2.00;;;15.60;64.40;;;;;;4937651;29;20348;-77
2023/04/13 11:47:54;;;;;;;9.38;2.58;;;15.70;64.30;;;;;;4938017;29;20117;-76
2023/04/13 11:50:21;;;;;;;13.68;2.30;;;15.80;64.20;;;;;;4934884;29;20060;-79
2023/04/13 11:52:50;;;;;;;13.52;2.30;;;15.90;64.10;;;;;;4936275;29;20123;-77
2023/04/13 11:55:17;;;;;;;13.45;2.03;;;16.00;64.00;;;;;;4937587;29;20062;-76
2023/04/13 11:57:44;;;;;;;8.05;2.10;;;16.00;63.70;;;;;;4937444;29;20054;-75
2023/04/13 12:00:18;;;;;;;12.15;2.00;;;16.10;63.30;;;;;;4937548;29;20075;-76
2023/04/13 12:02:51;;;;;;;15.43;2.25;;;16.10;62.90;;;;;;4936205;29;20118;-78
2023/04/13 12:05:24;;;;;;;16.33;2.35;;;16.20;62.90;;;;;;4937453;29;20127;-75
2023/04/13 12:07:53;;;;;;;11.10;1.80;;;16.30;62.60;;;;;;4938346;29;20439;-76
2023/04/13 12:10:35;;;;;;;11.95;2.30;;;16.30;62.40;;;;;;4924517;29;20083;-78
2023/04/13 12:13:07;;;;;;;9.50;1.77;;;16.30;62.20;;;;;;4941300;29;20083;-77
2023/04/13 12:15:35;;;;;;;10.75;2.17;;;16.40;62.20;;;;;;4941199;29;20036;-76
2023/04/13 12:18:02;;;;;;;10.35;1.95;;;16.30;62.00;;;;;;4939891;29;20052;-77
2023/04/13 12:20:43;;;;;;;8.13;2.03;;;16.30;62.10;;;;;;4938860;29;20082;-76
2023/04/13 12:23:29;;;;;;;9.07;1.90;;;16.30;62.10;;;;;;4938565;29;20050;-76
2023/04/13 12:26:04;;;;;;;11.20;2.65;;;16.30;61.80;;;;;;4939680;29;20060;-78
2023/04/13 12:28:35;;;;;;;8.13;1.95;;;16.20;61.60;;;;;;4946514;29;20055;-78
2023/04/13 12:31:03;;;;;;;8.27;1.50;;;16.20;62.10;;;;;;4924732;29;20047;-77
2023/04/13 12:33:29;;;;;;;9.15;1.80;;;16.20;61.90;;;;;;4959763;29;20051;-77
2023/04/13 12:35:55;;;;;;;9.45;2.10;;;16.10;62.10;;;;;;4927114;29;20073;-78
2023/04/13 12:38:22;;;;;;;7.07;2.20;;;16.10;62.10;;;;;;4942643;29;20047;-75
2023/04/13 12:40:48;;;;;;;7.13;1.45;;;16.10;62.20;;;;;;4942467;29;20070;-77
2023/04/13 12:43:22;;;;;;;8.13;1.60;;;16.10;62.20;;;;;;4959541;29;20039;-79
2023/04/13 12:45:48;;;;;;;8.90;1.50;;;16.10;62.10;;;;;;4959493;29;20126;-80
2023/04/13 12:48:14;;;;;;;19.35;3.03;;;16.10;62.10;;;;;;4919149;29;20443;-81
2023/04/13 12:50:40;;;;;;;15.52;2.80;;;16.00;62.30;;;;;;4940549;29;20052;-82
2023/04/13 12:53:05;;;;;;;14.57;2.78;;;16.00;62.60;;;;;;4942148;29;20046;-80
2023/04/13 12:55:49;;;;;;;18.23;2.80;;;16.00;62.70;;;;;;4941876;29;20230;-81
2023/04/13 12:58:15;;;;;;;17.90;3.00;;;16.00;62.70;;;;;;4959843;29;20311;-75
2023/04/13 13:00:46;;;;;;;16.95;3.33;;;16.00;62.60;;;;;;4959715;29;20154;-81
2023/04/13 13:03:37;;;;;;;13.88;2.25;;;16.00;62.70;;;;;;4941597;29;20336;-81
2023/04/13 13:06:07;;;;;;;20.45;3.20;;;16.00;62.90;;;;;;4926809;29;20059;-78
2023/04/13 13:08:33;;;;;;;23.20;2.85;;;16.00;62.90;;;;;;4942591;29;20051;-80
2023/04/13 13:10:59;;;;;;;19.30;2.83;;;16.00;62.70;;;;;;4942978;29;20094;-77
2023/04/13 13:13:25;;;;;;;11.57;2.40;;;16.00;62.70;;;;;;4959226;29;20035;-77
2023/04/13 13:15:51;;;;;;;22.10;2.83;;;16.00;63.40;;;;;;4959235;29;20062;-76
2023/04/13 13:18:16;;;;;;;15.20;2.80;;;16.00;62.90;;;;;;4942108;29;20051;-77
2023/04/13 13:20:43;;;;;;;18.15;3.13;;;15.90;62.90;;;;;;4959450;28;20055;-77
2023/04/13 13:23:11;;;;;;;20.85;2.85;;;15.90;62.90;;;;;;4959451;29;20047;-79
2023/04/13 13:25:42;;;;;;;20.42;2.75;;;15.90;63.00;;;;;;4958343;29;20047;-78
2023/04/13 13:28:08;;;;;;;15.35;3.47;;;15.90;62.50;;;;;;4942209;29;20059;-79
2023/04/13 13:30:35;;;;;;;22.42;2.97;;;15.80;61.40;;;;;;4907225;29;20139;-78
2023/04/13 13:33:04;;;;;;;18.90;3.53;;;15.70;60.90;;;;;;4907470;29;20047;-77
2023/04/13 13:35:32;;;;;;;17.20;2.92;;;15.80;60.90;;;;;;4940063;29;20043;-76
2023/04/13 13:38:00;;;;;;;22.67;3.10;;;15.70;58.90;;;;;;4940011;29;20410;-76
2023/04/13 13:40:26;;;;;;;28.25;4.22;;;15.60;58.20;;;;;;4923724;29;20074;-78
2023/04/13 13:42:52;;;;;;;24.23;3.88;;;15.60;58.20;;;;;;4922986;29;20079;-77
2023/04/13 13:45:21;;;;;;;21.42;3.33;;;15.60;58.20;;;;;;4939695;29;20040;-75
2023/04/13 13:47:53;;;;;;;23.52;3.58;;;15.50;57.60;;;;;;4939923;29;20123;-74
2023/04/13 13:50:40;;;;;;;21.15;3.05;;;15.50;57.80;;;;;;4939849;29;20123;-81
2023/04/13 13:53:07;;;;;;;27.50;3.78;;;15.50;58.70;;;;;;4922482;29;20043;-78
2023/04/13 13:55:33;;;;;;;25.45;3.65;;;15.50;59.00;;;;;;4906857;29;20473;-79
2023/04/13 13:58:13;;;;;;;27.60;4.45;;;15.40;59.30;;;;;;4907533;29;20148;-79
2023/04/13 14:00:42;;;;;;;23.67;4.38;;;15.50;58.80;;;;;;4906923;29;20059;-77
2023/04/13 14:03:08;;;;;;;26.88;4.07;;;15.50;58.90;;;;;;4922737;29;20050;-81
2023/04/13 14:05:34;;;;;;;21.98;3.42;;;15.60;58.90;;;;;;4938940;29;20044;-77
2023/04/13 14:08:00;;;;;;;23.15;3.03;;;15.50;58.80;;;;;;4939249;29;20040;-78
2023/04/13 14:10:26;;;;;;;22.98;3.60;;;15.60;58.80;;;;;;4939291;29;20071;-80
2023/04/13 14:12:53;;;;;;;15.40;2.92;;;15.70;58.90;;;;;;4922243;29;20482;-78
2023/04/13 14:15:33;;;;;;;12.77;2.63;;;15.80;59.00;;;;;;4939174;29;20062;-83
2023/04/13 14:17:59;;;;;;;18.10;2.33;;;15.80;59.10;;;;;;4907224;29;20362;-79
2023/04/13 14:20:25;;;;;;;14.57;2.33;;;15.90;59.20;;;;;;4907209;29;20059;-77
2023/04/13 14:22:51;;;;;;;20.27;2.45;;;16.00;59.30;;;;;;4906539;29;20047;-79
2023/04/13 14:25:16;;;;;;;17.55;2.80;;;16.00;59.30;;;;;;4921914;29;20075;-76
2023/04/13 14:27:42;;;;;;;28.95;3.65;;;16.00;59.20;;;;;;4938926;29;20048;-76
2023/04/13 14:30:11;;;;;;;25.75;4.20;;;16.00;59.50;;;;;;4938761;29;20051;-80
2023/04/13 14:32:36;;;;;;;19.75;3.40;;;16.10;59.80;;;;;;4956921;29;20114;-76
2023/04/13 14:35:02;;;;;;;24.70;3.28;;;16.00;59.80;;;;;;4957882;29;20137;-77
2023/04/13 14:37:28;;;;;;;30.38;3.63;;;16.10;60.10;;;;;;4941256;29;20466;-77
2023/04/13 14:39:54;;;;;;;33.65;4.93;;;16.10;60.60;;;;;;4941419;29;20047;-74
2023/04/13 14:42:21;;;;;;;32.92;3.95;;;16.10;61.30;;;;;;4958283;29;20134;-73
2023/04/13 14:44:47;;;;;;;29.13;4.55;;;16.10;61.30;;;;;;4940318;29;20366;-72
2023/04/13 14:47:14;;;;;;;35.55;5.25;;;16.10;60.70;;;;;;4957524;29;20050;-72
2023/04/13 14:49:41;;;;;;;38.15;3.90;;;16.10;61.20;;;;;;4957970;29;20058;-71
2023/04/13 14:52:07;;;;;;;27.70;3.92;;;16.10;61.40;;;;;;4940676;29;20540;-72
2023/04/13 14:54:33;;;;;;;25.63;4.45;;;16.20;62.10;;;;;;4957605;29;20118;-72
2023/04/13 14:57:01;;;;;;;32.28;3.85;;;16.30;62.60;;;;;;4940944;29;20136;-73
2023/04/13 14:59:27;;;;;;;21.92;3.15;;;16.40;63.00;;;;;;4957540;29;20047;-73
2023/04/13 15:01:54;;;;;;;22.02;3.50;;;16.50;63.20;;;;;;4957514;29;20062;-74
2023/04/13 15:04:19;;;;;;;23.85;3.15;;;16.50;63.30;;;;;;4924806;29;20087;-74
2023/04/13 15:06:46;;;;;;;24.50;4.18;;;16.60;63.40;;;;;;4940342;29;20101;-72
2023/04/13 15:09:12;;;;;;;25.33;3.30;;;16.60;63.50;;;;;;4941093;29;20059;-72
2023/04/13 15:11:38;;;;;;;21.25;3.22;;;16.60;63.40;;;;;;4957844;29;20079;-73
2023/04/13 15:14:04;;;;;;;24.80;2.72;;;16.60;63.50;;;;;;4957485;29;20089;-72
2023/04/13 15:16:29;;;;;;;22.85;2.83;;;16.60;63.60;;;;;;4940711;29;20051;-72
2023/04/13 15:18:56;;;;;;;17.17;3.40;;;16.70;63.70;;;;;;4940317;29;20066;-70
2023/04/13 15:21:22;;;;;;;29.02;4.05;;;16.70;63.80;;;;;;4957114;29;20065;-72
2023/04/13 15:23:48;;;;;;;21.80;4.25;;;16.70;63.70;;;;;;4940857;29;20126;-73
2023/04/13 15:26:17;;;;;;;27.25;4.25;;;16.60;63.50;;;;;;4957041;29;20459;-73
2023/04/13 15:28:43;;;;;;;35.10;4.82;;;16.60;63.40;;;;;;4940079;29;20091;-71
2023/04/13 15:31:09;;;;;;;30.35;4.82;;;16.60;63.50;;;;;;4941135;29;20461;-74
2023/04/13 15:33:36;;;;;;;18.77;3.70;;;16.50;63.20;;;;;;4940679;29;20055;-72
2023/04/13 15:36:02;;;;;;;33.85;4.18;;;16.50;60.20;;;;;;4940429;29;20058;-78
2023/04/13 15:38:28;;;;;;;28.85;4.05;;;16.40;63.10;;;;;;4957121;29;20366;-72
2023/04/13 15:40:54;;;;;;;31.75;4.88;;;16.50;64.00;;;;;;4939894;29;20050;-74
2023/04/13 15:43:20;;;;;;;28.63;4.55;;;16.40;64.00;;;;;;4956332;28;20122;-74
2023/04/13 15:45:46;;;;;;;33.67;4.20;;;16.40;64.10;;;;;;4957112;29;20336;-72
2023/04/13 15:48:12;;;;;;;37.60;5.10;;;16.50;64.30;;;;;;4940372;29;20055;-76
2023/04/13 15:50:37;;;;;;;26.70;3.45;;;16.50;64.50;;;;;;4940303;29;20363;-75
2023/04/13 15:53:05;;;;;;;22.67;3.22;;;16.50;64.10;;;;;;4957064;29;20047;-75
2023/04/13 15:55:32;;;;;;;23.98;3.88;;;16.50;62.80;;;;;;4939885;29;20047;-75
2023/04/13 15:57:57;;;;;;;22.65;3.70;;;16.50;61.70;;;;;;4935091;29;20126;-73
2023/04/13 16:00:24;;;;;;;20.63;2.80;;;16.50;60.90;;;;;;4956718;29;20118;-74
2023/04/13 16:02:50;;;;;;;22.27;4.05;;;16.50;60.40;;;;;;4956546;29;20062;-73
2023/04/13 16:05:17;;;;;;;17.92;2.78;;;16.40;59.30;;;;;;4956734;29;20445;-72
2023/04/13 16:07:43;;;;;;;20.25;3.13;;;16.40;59.10;;;;;;4939801;29;20109;-74
2023/04/13 16:10:18;;;;;;;13.93;2.65;;;16.40;59.00;;;;;;4956753;29;20055;-74
2023/04/13 16:12:44;;;;;;;12.90;2.38;;;16.40;58.70;;;;;;4955514;29;20127;-73
2023/04/13 16:15:11;;;;;;;26.45;4.07;;;16.40;58.10;;;;;;4936761;29;20060;-74
2023/04/13 16:17:39;;;;;;;16.15;3.53;;;16.40;57.50;;;;;;4937278;29;20087;-72
2023/04/13 16:22:42;;;;;;;17.17;2.92;;;16.20;57.30;;;;;;4954980;29;20055;-73
2023/04/13 16:25:13;;;;;;;20.83;3.33;;;16.10;57.30;;;;;;4956607;29;20047;-72
2023/04/13 16:27:40;;;;;;;22.02;2.85;;;16.10;57.60;;;;;;4956728;29;20446;-74
2023/04/13 16:30:07;;;;;;;12.98;2.40;;;16.00;58.20;;;;;;4939051;29;20059;-74
2023/04/13 16:32:33;;;;;;;22.25;3.00;;;16.00;58.60;;;;;;4939719;29;20059;-74
2023/04/13 16:34:59;;;;;;;16.90;3.15;;;15.90;58.90;;;;;;4956511;29;20425;-75
2023/04/13 16:37:24;;;;;;;15.77;2.25;;;15.90;59.20;;;;;;4956617;29;20126;-73
2023/04/13 16:39:50;;;;;;;13.82;3.00;;;15.80;59.40;;;;;;4923743;29;20149;-72
2023/04/13 16:42:16;;;;;;;12.23;2.33;;;15.80;59.60;;;;;;4940278;29;20054;-76
2023/04/13 16:44:42;;;;;;;13.18;2.33;;;15.80;59.90;;;;;;4956612;29;20083;-75
2023/04/13 16:47:08;;;;;;;11.05;1.80;;;15.80;60.10;;;;;;4956290;29;20462;-73
2023/04/13 16:49:34;;;;;;;11.85;2.13;;;15.70;60.30;;;;;;4956316;29;20074;-74
2023/04/13 16:52:00;;;;;;;8.80;2.10;;;15.70;60.50;;;;;;4939739;29;20063;-74
2023/04/13 16:54:26;;;;;;;11.32;2.33;;;15.70;60.70;;;;;;4958338;28;20409;-73
2023/04/13 16:56:51;;;;;;;9.00;1.67;;;15.70;60.90;;;;;;4942845;29;20131;-74
2023/04/13 16:59:18;;;;;;;6.25;1.88;;;15.60;61.10;;;;;;4943119;29;20051;-75
2023/04/13 17:01:44;;;;;;;8.05;2.03;;;15.70;61.30;;;;;;4959947;29;20051;-77
2023/04/13 17:04:10;;;;;;;11.05;2.10;;;15.70;61.40;;;;;;4959927;29;20051;-75
2023/04/13 17:06:37;;;;;;;10.40;2.20;;;15.60;62.20;;;;;;4942785;29;20047;-75
2023/04/13 17:09:06;;;;;;;5.45;1.45;;;15.70;61.80;;;;;;4959312;29;20461;-73
2023/04/13 17:11:33;;;;;;;8.45;1.77;;;15.60;61.80;;;;;;4959487;29;20453;-74
2023/04/13 17:13:59;;;;;;;10.60;1.92;;;15.70;61.90;;;;;;4959479;29;20094;-75
2023/04/13 17:16:27;;;;;;;5.00;1.50;;;15.70;62.00;;;;;;4942575;29;20079;-74
2023/04/13 17:18:55;;;;;;;7.03;1.48;;;15.60;61.90;;;;;;4959679;29;20055;-74
2023/04/13 17:21:21;;;;;;;7.03;1.75;;;15.60;61.90;;;;;;4959395;29;20043;-73
2023/04/13 17:23:46;;;;;;;5.60;1.58;;;15.70;61.90;;;;;;4959166;29;20138;-75
2023/04/13 17:26:13;;;;;;;8.23;1.63;;;15.70;61.90;;;;;;4959093;29;20055;-74
2023/04/13 17:28:38;;;;;;;9.43;1.80;;;15.60;61.80;;;;;;4959003;29;20063;-74
2023/04/13 17:31:06;;;;;;;5.53;1.38;;;15.70;61.90;;;;;;4942458;29;20073;-76
2023/04/13 17:33:32;;;;;;;6.90;1.63;;;15.70;61.90;;;;;;4959213;29;20059;-74
2023/04/13 17:35:58;;;;;;;9.15;1.98;;;15.60;61.80;;;;;;4958943;29;20058;-75
2023/04/13 17:38:23;;;;;;;7.85;1.75;;;15.70;61.80;;;;;;4959091;29;20125;-73
2023/04/13 17:40:49;;;;;;;8.68;2.10;;;15.70;61.80;;;;;;4959300;29;20047;-75
2023/04/13 17:43:16;;;;;;;5.75;1.65;;;15.70;61.70;;;;;;4942322;29;20051;-75
2023/04/13 17:45:41;;;;;;;6.20;1.98;;;15.70;61.70;;;;;;4959684;29;20044;-75
2023/04/13 17:48:07;;;;;;;4.75;1.23;;;15.70;61.70;;;;;;4959144;29;20177;-75
2023/04/13 17:50:33;;;;;;;10.30;1.80;;;15.70;61.60;;;;;;4959592;29;20097;-75
2023/04/13 17:53:02;;;;;;;5.05;1.20;;;15.70;61.70;;;;;;4959363;29;20426;-74
2023/04/13 17:55:28;;;;;;;5.65;1.83;;;15.70;61.80;;;;;;4958955;29;20054;-76
2023/04/13 17:57:54;;;;;;;5.82;1.50;;;15.70;61.70;;;;;;4958695;29;20047;-73
2023/04/13 18:00:20;;;;;;;4.93;1.00;;;15.70;61.60;;;;;;4958395;29;20130;-76
2023/04/13 18:02:49;;;;;;;9.43;1.65;;;15.70;61.70;;;;;;4926075;29;20059;-75
2023/04/13 18:05:17;;;;;;;3.28;0.70;;;15.70;61.80;;;;;;4957689;28;20054;-76
2023/04/13 18:07:43;;;;;;;6.75;1.25;;;15.70;61.80;;;;;;4958544;29;20062;-76
2023/04/13 18:10:09;;;;;;;10.85;2.03;;;15.70;61.60;;;;;;4958624;29;20335;-82
2023/04/13 18:12:38;;;;;;;6.45;1.80;;;15.80;61.10;;;;;;4925381;29;20049;-81
2023/04/13 18:15:05;;;;;;;11.07;2.60;;;15.70;59.00;;;;;;4958668;29;20039;-77